Time;durP1;ratioP1;P1;durP2;ratioP2;P2;SDS_P1;SDS_P2;PMS_P1;PMS_P2;Temp;Humidity;BMP_temperature;BMP_pressure;BME280_temperature;BME280_humidity;BME280_pressure;Samples;Min_cycle;Max_cycle;Signal;HPM_P1;HPM_P2
2023/07/09 00:00:52;;;;;;;3.63;3.15;;;;;;;;;;5035754;28;20207;-65
2023/07/09 00:03:19;;;;;;;3.67;3.38;;;;;;;;;;5033537;28;20878;-64
2023/07/09 00:05:48;;;;;;;4.32;3.75;;;;;;;;;;5043277;28;20223;-64
2023/07/09 00:08:28;;;;;;;4.03;3.33;;;;;;;;;;5032104;28;20229;-64
2023/07/09 00:10:56;;;;;;;7.15;3.60;;;;;;;;;;5035619;28;20228;-64
2023/07/09 00:13:24;;;;;;;5.13;4.03;;;;;;;;;;5033432;28;20730;-64
2023/07/09 00:15:52;;;;;;;7.80;4.93;;;;;;;;;;5032991;28;20222;-64
2023/07/09 00:18:20;;;;;;;5.88;4.10;;;;;;;;;;5028809;28;20244;-64
2023/07/09 00:20:48;;;;;;;5.35;3.80;;;;;;;;;;5035798;28;20268;-65
2023/07/09 00:23:16;;;;;;;10.65;8.07;;;;;;;;;;5029822;28;20229;-65
2023/07/09 00:25:44;;;;;;;5.53;4.95;;;;;;;;;;5037454;28;20235;-63
2023/07/09 00:28:16;;;;;;;6.78;5.50;;;;;;;;;;5034391;28;20202;-64
2023/07/09 00:30:44;;;;;;;5.47;4.60;;;;;;;;;;5035321;28;20256;-64
2023/07/09 00:33:14;;;;;;;5.00;4.25;;;;;;;;;;5028790;28;20206;-63
2023/07/09 00:35:45;;;;;;;4.78;4.22;;;;;;;;;;5040691;28;20256;-65
2023/07/09 00:38:21;;;;;;;5.15;4.45;;;;;;;;;;5037456;28;20213;-64
2023/07/09 00:40:57;;;;;;;6.07;4.20;;;;;;;;;;5040749;28;20289;-65
2023/07/09 00:43:24;;;;;;;4.45;3.75;;;;;;;;;;5029212;28;20243;-64
2023/07/09 00:46:10;;;;;;;4.57;4.00;;;;;;;;;;5036667;28;20594;-64
2023/07/09 00:48:37;;;;;;;4.68;4.05;;;;;;;;;;5040740;28;20226;-63
2023/07/09 00:51:09;;;;;;;5.30;4.03;;;;;;;;;;5028891;28;20226;-63
2023/07/09 00:53:36;;;;;;;4.68;3.90;;;;;;;;;;5035438;28;20190;-64
2023/07/09 00:56:09;;;;;;;5.25;4.75;;;;;;;;;;5032504;28;20218;-64
2023/07/09 00:58:38;;;;;;;5.72;4.40;;;;;;;;;;5046102;28;20703;-65
2023/07/09 01:01:11;;;;;;;4.82;4.10;;;;;;;;;;5033004;28;20233;-64
2023/07/09 01:03:43;;;;;;;4.88;4.22;;;;;;;;;;5034711;28;20289;-64
2023/07/09 01:06:12;;;;;;;5.45;3.97;;;;;;;;;;5038233;28;20230;-64
2023/07/09 01:08:41;;;;;;;5.13;4.13;;;;;;;;;;5038360;28;20214;-65
2023/07/09 01:11:20;;;;;;;7.72;4.07;;;;;;;;;;5032676;28;20204;-64
2023/07/09 01:13:50;;;;;;;6.90;4.85;;;;;;;;;;5037155;28;20202;-64
2023/07/09 01:16:19;;;;;;;8.30;4.70;;;;;;;;;;5041315;28;20257;-64
2023/07/09 01:18:46;;;;;;;5.22;4.00;;;;;;;;;;5036140;28;20851;-65
2023/07/09 01:21:16;;;;;;;4.93;4.43;;;;;;;;;;5037491;28;20206;-65
2023/07/09 01:23:44;;;;;;;5.72;4.25;;;;;;;;;;5047845;28;20217;-64
2023/07/09 01:26:12;;;;;;;4.60;4.20;;;;;;;;;;5025467;28;20742;-65
2023/07/09 01:28:46;;;;;;;4.75;3.97;;;;;;;;;;5038369;28;20256;-64
2023/07/09 01:31:14;;;;;;;6.43;4.47;;;;;;;;;;5034379;28;20354;-63
2023/07/09 01:33:44;;;;;;;5.25;4.75;;;;;;;;;;5034688;28;20286;-65
2023/07/09 01:36:13;;;;;;;6.03;4.82;;;;;;;;;;5035456;28;20223;-62
2023/07/09 01:38:41;;;;;;;5.40;4.35;;;;;;;;;;5030979;28;22120;-67
2023/07/09 01:41:13;;;;;;;5.30;4.75;;;;;;;;;;5029507;28;20207;-63
2023/07/09 01:43:42;;;;;;;5.80;4.93;;;;;;;;;;5042098;28;20198;-63
2023/07/09 01:46:09;;;;;;;4.30;3.90;;;;;;;;;;5037835;28;20227;-65
2023/07/09 01:48:40;;;;;;;4.55;4.15;;;;;;;;;;5030177;28;20206;-65
2023/07/09 01:51:10;;;;;;;6.95;5.45;;;;;;;;;;5029668;28;20288;-64
2023/07/09 01:53:38;;;;;;;7.60;6.05;;;;;;;;;;5044280;28;20575;-65
2023/07/09 01:56:07;;;;;;;6.65;5.57;;;;;;;;;;5037284;28;20227;-67
2023/07/09 01:58:35;;;;;;;10.57;5.13;;;;;;;;;;5046306;28;20574;-66
2023/07/09 02:01:02;;;;;;;5.05;4.55;;;;;;;;;;5027047;28;20209;-64
2023/07/09 02:03:29;;;;;;;5.72;4.55;;;;;;;;;;5041508;28;20234;-64
2023/07/09 02:05:59;;;;;;;5.03;4.47;;;;;;;;;;5022067;28;20677;-66
2023/07/09 02:08:27;;;;;;;5.47;4.43;;;;;;;;;;5039974;28;20220;-61
2023/07/09 02:10:54;;;;;;;5.13;4.43;;;;;;;;;;5053058;28;20586;-62
2023/07/09 02:13:21;;;;;;;6.38;4.45;;;;;;;;;;5039833;28;20612;-64
2023/07/09 02:15:49;;;;;;;5.95;4.80;;;;;;;;;;5028062;28;20233;-64
2023/07/09 02:18:16;;;;;;;5.57;4.35;;;;;;;;;;5037628;28;20205;-65
2023/07/09 02:20:45;;;;;;;5.93;4.40;;;;;;;;;;5029492;28;20207;-65
2023/07/09 02:23:13;;;;;;;4.60;3.92;;;;;;;;;;5036839;28;20210;-67
2023/07/09 02:25:40;;;;;;;5.43;4.50;;;;;;;;;;5031075;28;20231;-62
2023/07/09 02:28:08;;;;;;;4.97;4.22;;;;;;;;;;5042353;28;20971;-67
2023/07/09 02:30:35;;;;;;;5.03;4.47;;;;;;;;;;5032774;28;20262;-65
2023/07/09 02:33:02;;;;;;;5.80;4.35;;;;;;;;;;5037247;28;20688;-67
2023/07/09 02:35:30;;;;;;;5.20;4.05;;;;;;;;;;5027566;28;20835;-66
2023/07/09 02:37:57;;;;;;;5.32;4.13;;;;;;;;;;5034655;28;20217;-64
2023/07/09 02:40:24;;;;;;;4.63;4.10;;;;;;;;;;5028769;28;20701;-61
2023/07/09 02:42:52;;;;;;;4.78;3.97;;;;;;;;;;5035294;28;20207;-61
2023/07/09 02:45:19;;;;;;;6.25;4.40;;;;;;;;;;5031567;28;20226;-66
2023/07/09 02:47:46;;;;;;;6.28;4.75;;;;;;;;;;5029723;28;20255;-65
2023/07/09 02:50:14;;;;;;;5.05;4.28;;;;;;;;;;5031805;28;20225;-65
2023/07/09 02:52:42;;;;;;;4.50;4.00;;;;;;;;;;5022789;28;20206;-65
2023/07/09 02:55:09;;;;;;;4.80;4.40;;;;;;;;;;5041551;28;20591;-65
2023/07/09 02:57:36;;;;;;;5.60;3.97;;;;;;;;;;5027944;28;20687;-63
2023/07/09 03:00:05;;;;;;;5.15;4.25;;;;;;;;;;5033189;28;20206;-65
2023/07/09 03:02:33;;;;;;;5.00;4.00;;;;;;;;;;5042014;28;20207;-65
2023/07/09 03:05:00;;;;;;;6.65;4.43;;;;;;;;;;5037441;28;20225;-66
2023/07/09 03:07:28;;;;;;;5.88;4.15;;;;;;;;;;5035051;28;20205;-63
2023/07/09 03:09:55;;;;;;;6.50;4.40;;;;;;;;;;5036513;28;20230;-66
2023/07/09 03:12:22;;;;;;;5.07;4.57;;;;;;;;;;5032044;28;20191;-63
2023/07/09 03:14:52;;;;;;;5.88;4.18;;;;;;;;;;5038308;28;20217;-65
2023/07/09 03:17:19;;;;;;;4.90;4.38;;;;;;;;;;5028048;28;21110;-64
2023/07/09 03:19:46;;;;;;;5.63;4.30;;;;;;;;;;5032640;28;20199;-66
2023/07/09 03:22:14;;;;;;;5.47;4.13;;;;;;;;;;5033085;28;20781;-64
2023/07/09 03:24:41;;;;;;;4.38;3.97;;;;;;;;;;5033660;28;20638;-65
2023/07/09 03:27:09;;;;;;;5.15;4.10;;;;;;;;;;5033577;28;20575;-65
2023/07/09 03:29:36;;;;;;;5.50;4.25;;;;;;;;;;5033398;28;20722;-64
2023/07/09 03:32:03;;;;;;;6.25;4.63;;;;;;;;;;5032557;28;20253;-64
2023/07/09 03:34:31;;;;;;;6.32;4.35;;;;;;;;;;5031872;28;20206;-64
2023/07/09 03:36:58;;;;;;;6.00;4.47;;;;;;;;;;5035350;28;20665;-65
2023/07/09 03:39:25;;;;;;;5.45;4.20;;;;;;;;;;5035008;28;20213;-65
2023/07/09 03:41:53;;;;;;;5.75;4.15;;;;;;;;;;5030028;28;20203;-65
2023/07/09 03:44:20;;;;;;;5.13;4.30;;;;;;;;;;5029676;28;20248;-63
2023/07/09 03:46:48;;;;;;;5.38;3.67;;;;;;;;;;5030043;28;20290;-65
2023/07/09 03:49:15;;;;;;;5.18;4.50;;;;;;;;;;5047887;28;20198;-65
2023/07/09 03:51:42;;;;;;;7.43;5.03;;;;;;;;;;5042738;28;20198;-63
2023/07/09 03:54:10;;;;;;;5.65;3.90;;;;;;;;;;5044956;28;20252;-66
2023/07/09 03:56:37;;;;;;;4.70;4.30;;;;;;;;;;5038762;28;20219;-67
2023/07/09 03:59:04;;;;;;;5.78;4.18;;;;;;;;;;5042494;28;20210;-65
2023/07/09 04:01:32;;;;;;;4.97;4.20;;;;;;;;;;5035692;28;20725;-62
2023/07/09 04:03:59;;;;;;;6.63;4.18;;;;;;;;;;5032792;28;20198;-67
2023/07/09 04:06:26;;;;;;;4.53;3.97;;;;;;;;;;5030989;28;20307;-67
2023/07/09 04:08:54;;;;;;;6.00;4.47;;;;;;;;;;5039176;28;20260;-66
2023/07/09 04:11:21;;;;;;;4.55;3.90;;;;;;;;;;5031437;28;20222;-65
2023/07/09 04:13:48;;;;;;;4.43;3.92;;;;;;;;;;5033639;28;20203;-64
2023/07/09 04:16:15;;;;;;;4.80;4.28;;;;;;;;;;5033267;28;20715;-63
2023/07/09 04:18:43;;;;;;;4.68;4.05;;;;;;;;;;5038226;28;20210;-65
2023/07/09 04:21:10;;;;;;;7.97;4.38;;;;;;;;;;5032948;28;20564;-64
2023/07/09 04:23:38;;;;;;;5.68;4.22;;;;;;;;;;5038121;28;20225;-66
2023/07/09 04:26:09;;;;;;;5.88;3.90;;;;;;;;;;5039368;28;20238;-64
2023/07/09 04:28:36;;;;;;;6.00;4.38;;;;;;;;;;5043817;28;20205;-64
2023/07/09 04:31:03;;;;;;;5.05;4.30;;;;;;;;;;5035381;28;20281;-64
2023/07/09 04:33:31;;;;;;;5.65;4.35;;;;;;;;;;5046063;28;20648;-63
2023/07/09 04:35:58;;;;;;;4.63;4.20;;;;;;;;;;5030363;28;20595;-63
2023/07/09 04:38:25;;;;;;;6.10;4.68;;;;;;;;;;5037890;28;20210;-64
2023/07/09 04:40:53;;;;;;;4.72;4.32;;;;;;;;;;5031211;28;20272;-64
2023/07/09 04:43:20;;;;;;;5.82;4.40;;;;;;;;;;5038716;28;20663;-64
2023/07/09 04:45:48;;;;;;;7.53;4.68;;;;;;;;;;5031877;28;20266;-64
2023/07/09 04:48:15;;;;;;;5.57;4.93;;;;;;;;;;5028741;28;20202;-64
2023/07/09 04:50:43;;;;;;;5.30;4.43;;;;;;;;;;5039824;28;20298;-64
2023/07/09 04:53:11;;;;;;;5.30;4.80;;;;;;;;;;5032613;28;20206;-63
2023/07/09 04:55:39;;;;;;;6.13;5.28;;;;;;;;;;5039005;28;20237;-64
2023/07/09 04:58:06;;;;;;;5.90;4.90;;;;;;;;;;5032967;28;20207;-63
2023/07/09 05:00:33;;;;;;;7.22;5.20;;;;;;;;;;5028166;28;20207;-64
2023/07/09 05:03:01;;;;;;;5.95;4.05;;;;;;;;;;5042960;28;20206;-64
2023/07/09 05:05:28;;;;;;;5.72;4.70;;;;;;;;;;5033642;28;20249;-65
2023/07/09 05:07:55;;;;;;;4.82;4.28;;;;;;;;;;5034182;28;20215;-63
2023/07/09 05:10:23;;;;;;;6.40;4.57;;;;;;;;;;5034077;28;20221;-63
2023/07/09 05:12:51;;;;;;;5.00;4.45;;;;;;;;;;5033406;28;20252;-64
2023/07/09 05:15:19;;;;;;;4.88;4.32;;;;;;;;;;5034640;28;20221;-64
2023/07/09 05:17:47;;;;;;;4.97;4.10;;;;;;;;;;5037592;28;20260;-63
2023/07/09 05:20:15;;;;;;;4.70;4.30;;;;;;;;;;5039051;28;20217;-64
2023/07/09 05:22:42;;;;;;;6.70;4.15;;;;;;;;;;5037807;28;20202;-64
2023/07/09 05:25:09;;;;;;;6.53;4.05;;;;;;;;;;5033637;28;20769;-65
2023/07/09 05:27:37;;;;;;;5.63;4.03;;;;;;;;;;5032970;28;20465;-66
2023/07/09 05:30:04;;;;;;;4.63;3.75;;;;;;;;;;5038359;28;20230;-64
2023/07/09 05:32:32;;;;;;;3.90;3.60;;;;;;;;;;5033537;28;20218;-65
2023/07/09 05:34:59;;;;;;;5.30;3.95;;;;;;;;;;5049046;28;20241;-65
2023/07/09 05:37:26;;;;;;;4.05;3.65;;;;;;;;;;5028914;28;20194;-64
2023/07/09 05:39:54;;;;;;;5.15;3.40;;;;;;;;;;5034370;28;20202;-65
2023/07/09 05:42:21;;;;;;;3.65;3.30;;;;;;;;;;5032168;28;20207;-64
2023/07/09 05:44:48;;;;;;;4.55;3.80;;;;;;;;;;5031711;28;20231;-64
2023/07/09 05:47:16;;;;;;;4.15;3.75;;;;;;;;;;5031228;28;20199;-66
2023/07/09 05:49:43;;;;;;;5.28;3.50;;;;;;;;;;5033134;28;20248;-64
2023/07/09 05:52:11;;;;;;;3.83;3.42;;;;;;;;;;5046509;28;20681;-65
2023/07/09 05:54:38;;;;;;;4.30;3.58;;;;;;;;;;5034504;28;20206;-66
2023/07/09 05:57:05;;;;;;;4.65;3.15;;;;;;;;;;5044115;28;20202;-64
2023/07/09 05:59:33;;;;;;;3.70;3.15;;;;;;;;;;5036242;28;20203;-64
2023/07/09 06:02:00;;;;;;;4.50;3.22;;;;;;;;;;5032754;28;20206;-65
2023/07/09 06:04:28;;;;;;;6.63;3.75;;;;;;;;;;5037431;28;20564;-65
2023/07/09 06:06:55;;;;;;;4.07;3.67;;;;;;;;;;5038536;28;20544;-65
2023/07/09 06:09:23;;;;;;;5.28;4.72;;;;;;;;;;5037752;28;20232;-64
2023/07/09 06:11:50;;;;;;;5.85;4.53;;;;;;;;;;5048186;28;20256;-66
2023/07/09 06:14:18;;;;;;;5.03;4.53;;;;;;;;;;5035289;28;20265;-65
2023/07/09 06:16:45;;;;;;;4.32;3.92;;;;;;;;;;5046556;28;20223;-64
2023/07/09 06:19:13;;;;;;;3.97;3.47;;;;;;;;;;5034274;28;20248;-65
2023/07/09 06:21:40;;;;;;;4.20;3.50;;;;;;;;;;5037644;28;20227;-65
2023/07/09 06:24:08;;;;;;;5.97;3.42;;;;;;;;;;5044399;28;20215;-64
2023/07/09 06:26:36;;;;;;;3.58;3.28;;;;;;;;;;5031703;28;20606;-64
2023/07/09 06:29:03;;;;;;;5.10;3.70;;;;;;;;;;5040227;28;20267;-64
2023/07/09 06:31:31;;;;;;;4.55;3.90;;;;;;;;;;5046047;28;20217;-65
2023/07/09 06:34:02;;;;;;;4.53;3.72;;;;;;;;;;5027191;28;20206;-64
2023/07/09 06:36:30;;;;;;;7.90;4.03;;;;;;;;;;5029780;28;20293;-64
2023/07/09 06:38:58;;;;;;;5.85;4.07;;;;;;;;;;5024547;28;20202;-66
2023/07/09 06:41:25;;;;;;;4.30;3.90;;;;;;;;;;5040353;28;20695;-64
2023/07/09 06:43:53;;;;;;;7.38;3.95;;;;;;;;;;5035892;28;20920;-64
2023/07/09 06:46:20;;;;;;;5.07;3.65;;;;;;;;;;5036365;28;20235;-64
2023/07/09 06:48:48;;;;;;;5.25;3.92;;;;;;;;;;5030422;28;20275;-65
2023/07/09 06:51:15;;;;;;;4.57;4.03;;;;;;;;;;5032017;28;20230;-63
2023/07/09 06:53:44;;;;;;;4.00;3.58;;;;;;;;;;5038884;28;20209;-65
2023/07/09 06:56:11;;;;;;;4.75;3.90;;;;;;;;;;5033101;28;20268;-66
2023/07/09 06:58:38;;;;;;;4.22;3.72;;;;;;;;;;5029179;28;20218;-65
2023/07/09 07:01:10;;;;;;;9.10;4.18;;;;;;;;;;5035826;28;20210;-62
2023/07/09 07:03:38;;;;;;;4.03;3.60;;;;;;;;;;5035653;28;20243;-64
2023/07/09 07:06:06;;;;;;;4.40;3.53;;;;;;;;;;5036043;28;20226;-64
2023/07/09 07:08:34;;;;;;;4.10;3.65;;;;;;;;;;5043814;28;20218;-64
2023/07/09 07:11:03;;;;;;;4.78;3.22;;;;;;;;;;5037703;28;20210;-67
2023/07/09 07:13:32;;;;;;;4.40;3.60;;;;;;;;;;5043574;28;20211;-65
2023/07/09 07:15:59;;;;;;;4.22;3.58;;;;;;;;;;5040272;28;20226;-64
2023/07/09 07:18:27;;;;;;;7.30;3.72;;;;;;;;;;5059143;28;20221;-65
2023/07/09 07:20:54;;;;;;;4.97;3.55;;;;;;;;;;5040298;28;20275;-65
2023/07/09 07:23:23;;;;;;;3.67;3.28;;;;;;;;;;5027286;28;20210;-64
2023/07/09 07:25:51;;;;;;;5.25;3.80;;;;;;;;;;5043534;28;20257;-65
2023/07/09 07:28:19;;;;;;;4.22;3.30;;;;;;;;;;5037589;28;20207;-65
2023/07/09 07:30:47;;;;;;;3.80;3.40;;;;;;;;;;5038948;28;20226;-64
2023/07/09 07:33:16;;;;;;;4.00;3.42;;;;;;;;;;5044578;28;20245;-65
2023/07/09 07:35:43;;;;;;;3.83;3.20;;;;;;;;;;5038355;28;20227;-64
2023/07/09 07:38:30;;;;;;;5.40;3.60;;;;;;;;;;5033088;28;20339;-64
2023/07/09 07:40:58;;;;;;;5.15;3.53;;;;;;;;;;5036422;28;20229;-65
2023/07/09 07:43:27;;;;;;;4.80;3.20;;;;;;;;;;5038366;28;20203;-66
2023/07/09 07:45:54;;;;;;;5.22;3.60;;;;;;;;;;5036445;28;20585;-65
2023/07/09 07:48:21;;;;;;;3.38;2.95;;;;;;;;;;5029944;28;20209;-65
2023/07/09 07:50:49;;;;;;;3.97;3.03;;;;;;;;;;5042890;28;20234;-64
2023/07/09 07:53:16;;;;;;;3.78;3.33;;;;;;;;;;5041023;28;20209;-65
2023/07/09 07:55:44;;;;;;;3.92;3.10;;;;;;;;;;5036442;28;20281;-65
2023/07/09 07:58:12;;;;;;;5.30;3.40;;;;;;;;;;5041123;28;20206;-65
2023/07/09 08:00:40;;;;;;;3.63;3.30;;;;;;;;;;5043020;28;20590;-63
2023/07/09 08:03:07;;;;;;;5.78;3.30;;;;;;;;;;5033381;28;20202;-62
2023/07/09 08:05:35;;;;;;;5.95;3.17;;;;;;;;;;5032554;28;20261;-65
2023/07/09 08:08:02;;;;;;;4.05;3.35;;;;;;;;;;5028098;28;20213;-64
2023/07/09 08:10:29;;;;;;;6.00;3.63;;;;;;;;;;5036727;28;20218;-64
2023/07/09 08:12:57;;;;;;;5.05;2.95;;;;;;;;;;5029352;28;20369;-64
2023/07/09 08:15:25;;;;;;;4.13;3.22;;;;;;;;;;5030121;28;20277;-64
2023/07/09 08:17:53;;;;;;;5.07;3.55;;;;;;;;;;5030145;28;20220;-63
2023/07/09 08:20:26;;;;;;;4.50;3.00;;;;;;;;;;5016920;28;20203;-64
2023/07/09 08:22:53;;;;;;;4.22;3.25;;;;;;;;;;5033147;28;21778;-64
2023/07/09 08:25:21;;;;;;;4.57;2.95;;;;;;;;;;5026018;28;20700;-64
2023/07/09 08:27:48;;;;;;;4.18;3.05;;;;;;;;;;5043791;28;20269;-65
2023/07/09 08:30:15;;;;;;;4.82;3.22;;;;;;;;;;5038882;28;20656;-64
2023/07/09 08:32:43;;;;;;;3.95;3.20;;;;;;;;;;5034631;28;20229;-64
2023/07/09 08:35:11;;;;;;;3.58;3.03;;;;;;;;;;5035758;28;20226;-65
2023/07/09 08:37:42;;;;;;;4.03;3.17;;;;;;;;;;5039072;28;20201;-64
2023/07/09 08:40:16;;;;;;;3.72;2.90;;;;;;;;;;5040425;28;20248;-63
2023/07/09 08:42:50;;;;;;;3.95;2.97;;;;;;;;;;5031906;28;20209;-65
2023/07/09 08:45:47;;;;;;;5.10;3.22;;;;;;;;;;5034941;28;20215;-64
2023/07/09 08:48:34;;;;;;;2.97;2.60;;;;;;;;;;5033125;28;20207;-64
2023/07/09 08:51:08;;;;;;;3.42;2.90;;;;;;;;;;5027663;28;20262;-64
2023/07/09 08:53:41;;;;;;;6.43;2.80;;;;;;;;;;5043060;28;20202;-64
2023/07/09 08:56:10;;;;;;;3.92;2.92;;;;;;;;;;5049611;28;20727;-64
2023/07/09 08:58:38;;;;;;;3.60;2.90;;;;;;;;;;5050604;28;20206;-64
2023/07/09 09:01:07;;;;;;;4.93;2.83;;;;;;;;;;5044024;28;20203;-65
2023/07/09 09:03:41;;;;;;;3.30;3.00;;;;;;;;;;5021634;28;20210;-64
2023/07/09 09:06:13;;;;;;;4.80;3.03;;;;;;;;;;5033506;28;20226;-65
2023/07/09 09:08:48;;;;;;;5.05;3.03;;;;;;;;;;5038391;28;20203;-63
2023/07/09 09:11:20;;;;;;;3.90;2.63;;;;;;;;;;5039976;28;20333;-63
2023/07/09 09:13:49;;;;;;;4.82;3.58;;;;;;;;;;5041605;28;20202;-63
2023/07/09 09:16:28;;;;;;;3.42;3.00;;;;;;;;;;5036891;28;20245;-64
2023/07/09 09:18:58;;;;;;;3.60;2.42;;;;;;;;;;5040791;28;20323;-64
2023/07/09 09:21:38;;;;;;;3.63;2.80;;;;;;;;;;5038411;28;20211;-63
2023/07/09 09:24:14;;;;;;;4.25;2.63;;;;;;;;;;5038130;28;20217;-63
2023/07/09 09:26:43;;;;;;;4.78;2.88;;;;;;;;;;5044785;28;20240;-64
2023/07/09 09:29:14;;;;;;;4.05;3.08;;;;;;;;;;5039306;28;20210;-64
2023/07/09 09:31:43;;;;;;;4.82;2.83;;;;;;;;;;5040481;28;20758;-64
2023/07/09 09:34:18;;;;;;;5.18;2.70;;;;;;;;;;5036529;28;20202;-64
2023/07/09 09:36:45;;;;;;;5.63;3.30;;;;;;;;;;5040103;28;20220;-63
2023/07/09 09:39:12;;;;;;;5.13;2.97;;;;;;;;;;5045998;28;20202;-64
2023/07/09 09:41:42;;;;;;;2.97;2.60;;;;;;;;;;5035412;28;20580;-64
2023/07/09 09:44:18;;;;;;;4.38;3.03;;;;;;;;;;5037503;28;20211;-64
2023/07/09 09:46:45;;;;;;;4.05;2.80;;;;;;;;;;5037445;28;20218;-64
2023/07/09 09:49:12;;;;;;;3.58;3.00;;;;;;;;;;5036804;28;20209;-65
2023/07/09 09:51:41;;;;;;;4.85;2.95;;;;;;;;;;5036397;28;20218;-64
2023/07/09 09:54:14;;;;;;;4.05;2.53;;;;;;;;;;5040534;28;20206;-64
2023/07/09 09:56:43;;;;;;;4.78;3.22;;;;;;;;;;5042172;28;20784;-64
2023/07/09 09:59:18;;;;;;;3.63;2.85;;;;;;;;;;5043147;28;20210;-63
2023/07/09 10:01:45;;;;;;;3.97;3.00;;;;;;;;;;5044914;28;20201;-62
2023/07/09 10:04:17;;;;;;;4.32;3.22;;;;;;;;;;5045423;28;20616;-64
2023/07/09 10:06:51;;;;;;;5.03;2.92;;;;;;;;;;5039840;28;20834;-64
2023/07/09 10:09:24;;;;;;;4.55;2.97;;;;;;;;;;5038902;28;20198;-64
2023/07/09 10:12:19;;;;;;;4.43;3.00;;;;;;;;;;5028087;28;20225;-64
2023/07/09 10:14:49;;;;;;;3.72;2.80;;;;;;;;;;5032957;28;20687;-64
2023/07/09 10:17:23;;;;;;;4.00;2.92;;;;;;;;;;5036406;28;20198;-64
2023/07/09 10:20:01;;;;;;;5.75;3.22;;;;;;;;;;5036026;28;20226;-64
2023/07/09 10:22:42;;;;;;;4.60;3.47;;;;;;;;;;5028489;28;20225;-64
2023/07/09 10:25:15;;;;;;;4.90;3.10;;;;;;;;;;5034811;28;20284;-63
2023/07/09 10:27:45;;;;;;;4.07;3.00;;;;;;;;;;5034389;28;20265;-64
2023/07/09 10:30:31;;;;;;;4.55;3.33;;;;;;;;;;5035303;28;20263;-64
2023/07/09 10:33:01;;;;;;;4.68;3.20;;;;;;;;;;5029447;28;20230;-65
2023/07/09 10:35:35;;;;;;;4.05;3.03;;;;;;;;;;5033227;28;20229;-65
2023/07/09 10:38:06;;;;;;;4.45;3.17;;;;;;;;;;5035772;28;20214;-64
2023/07/09 10:40:41;;;;;;;4.20;3.17;;;;;;;;;;5037578;28;20198;-66
2023/07/09 10:43:13;;;;;;;4.43;3.20;;;;;;;;;;5038130;28;20258;-69
2023/07/09 10:45:43;;;;;;;4.57;3.33;;;;;;;;;;5037458;28;20226;-68
2023/07/09 10:48:19;;;;;;;4.57;3.30;;;;;;;;;;5043571;28;20209;-64
2023/07/09 10:50:51;;;;;;;5.50;3.13;;;;;;;;;;5036528;28;20297;-64
2023/07/09 10:53:39;;;;;;;4.88;3.00;;;;;;;;;;5040222;28;20208;-68
2023/07/09 10:56:10;;;;;;;4.35;3.25;;;;;;;;;;5036797;28;20225;-67
2023/07/09 10:58:42;;;;;;;5.13;3.15;;;;;;;;;;5032836;28;20202;-66
2023/07/09 11:01:13;;;;;;;5.65;3.22;;;;;;;;;;5040444;28;20198;-69
2023/07/09 11:03:51;;;;;;;7.05;3.33;;;;;;;;;;5035071;28;20205;-67
2023/07/09 11:06:23;;;;;;;3.28;2.97;;;;;;;;;;5038374;28;20224;-69
2023/07/09 11:08:53;;;;;;;6.18;3.70;;;;;;;;;;5035354;28;20263;-65
2023/07/09 11:11:27;;;;;;;5.03;3.30;;;;;;;;;;5033056;28;20222;-66
2023/07/09 11:13:57;;;;;;;4.35;3.30;;;;;;;;;;5023466;28;20289;-69
2023/07/09 11:16:28;;;;;;;5.75;3.35;;;;;;;;;;5023851;28;20275;-67
2023/07/09 11:19:00;;;;;;;7.72;3.53;;;;;;;;;;5017828;28;20756;-65
2023/07/09 11:21:28;;;;;;;4.57;3.60;;;;;;;;;;5020914;28;20678;-70
2023/07/09 11:23:58;;;;;;;4.78;3.55;;;;;;;;;;5029869;28;20229;-65
2023/07/09 11:26:26;;;;;;;4.95;3.35;;;;;;;;;;5023484;28;20237;-68
2023/07/09 11:29:15;;;;;;;5.97;3.13;;;;;;;;;;5029904;28;20209;-65
2023/07/09 11:31:45;;;;;;;4.95;3.45;;;;;;;;;;5036963;28;20294;-70
2023/07/09 11:34:13;;;;;;;5.15;3.53;;;;;;;;;;5031220;28;20220;-68
2023/07/09 11:36:57;;;;;;;6.70;3.45;;;;;;;;;;5029811;28;20218;-65
2023/07/09 11:39:36;;;;;;;6.10;3.67;;;;;;;;;;5023928;28;20256;-66
2023/07/09 11:42:04;;;;;;;6.35;3.70;;;;;;;;;;5030216;28;20230;-65
2023/07/09 11:44:32;;;;;;;4.90;3.75;;;;;;;;;;5040320;28;20228;-65
2023/07/09 11:46:59;;;;;;;4.43;3.30;;;;;;;;;;5030615;28;20929;-63
2023/07/09 11:49:45;;;;;;;5.18;3.97;;;;;;;;;;5032139;28;20214;-63
2023/07/09 11:52:13;;;;;;;4.55;3.60;;;;;;;;;;5026002;28;21100;-67
2023/07/09 11:54:42;;;;;;;6.55;3.70;;;;;;;;;;5023453;28;20256;-66
2023/07/09 11:57:11;;;;;;;4.68;3.05;;;;;;;;;;5033668;28;20243;-72
2023/07/09 11:59:40;;;;;;;4.05;3.35;;;;;;;;;;5031944;28;20332;-65
2023/07/09 12:02:14;;;;;;;4.80;3.35;;;;;;;;;;5032771;28;20214;-65
2023/07/09 12:04:42;;;;;;;5.82;3.63;;;;;;;;;;5024777;28;20310;-65
2023/07/09 12:07:13;;;;;;;5.28;3.70;;;;;;;;;;5027115;28;20261;-67
2023/07/09 12:09:42;;;;;;;4.50;3.60;;;;;;;;;;5031448;28;20213;-69
2023/07/09 12:12:35;;;;;;;5.72;3.63;;;;;;;;;;5024695;28;20224;-67
2023/07/09 12:15:06;;;;;;;5.22;3.78;;;;;;;;;;5026501;28;20303;-69
2023/07/09 12:17:37;;;;;;;6.95;3.97;;;;;;;;;;5026085;28;20738;-67
2023/07/09 12:20:05;;;;;;;6.95;3.95;;;;;;;;;;5025295;28;20365;-66
2023/07/09 12:22:33;;;;;;;4.38;3.35;;;;;;;;;;5027603;28;20210;-68
2023/07/09 12:25:00;;;;;;;6.63;3.90;;;;;;;;;;5025204;28;20409;-64
2023/07/09 12:27:29;;;;;;;4.25;3.70;;;;;;;;;;5028686;28;20206;-64
2023/07/09 12:29:57;;;;;;;5.85;3.97;;;;;;;;;;5036920;28;20615;-70
2023/07/09 12:32:32;;;;;;;4.93;3.55;;;;;;;;;;5033014;28;20283;-67
2023/07/09 12:35:00;;;;;;;6.40;3.75;;;;;;;;;;5026623;28;20974;-65
2023/07/09 12:37:29;;;;;;;5.57;3.90;;;;;;;;;;5037914;28;20567;-67
2023/07/09 12:39:56;;;;;;;6.70;4.13;;;;;;;;;;5027080;28;20201;-66
2023/07/09 12:42:34;;;;;;;6.53;4.22;;;;;;;;;;5031615;28;20256;-67
2023/07/09 12:45:02;;;;;;;6.43;3.88;;;;;;;;;;5031949;28;20572;-66
2023/07/09 12:47:29;;;;;;;5.68;4.07;;;;;;;;;;5039787;28;20276;-67
2023/07/09 12:50:16;;;;;;;7.72;4.57;;;;;;;;;;5041224;28;20210;-67
2023/07/09 12:52:47;;;;;;;8.45;3.92;;;;;;;;;;5029922;28;20224;-68
2023/07/09 12:55:25;;;;;;;5.72;3.92;;;;;;;;;;5037592;28;20222;-65
2023/07/09 12:57:55;;;;;;;4.70;3.70;;;;;;;;;;5038684;28;20671;-71
2023/07/09 13:00:23;;;;;;;5.32;3.67;;;;;;;;;;5031489;28;20201;-68
2023/07/09 13:02:55;;;;;;;5.43;3.28;;;;;;;;;;5036482;28;20202;-65
2023/07/09 13:05:24;;;;;;;5.10;3.33;;;;;;;;;;5041683;28;20226;-65
2023/07/09 13:08:00;;;;;;;4.50;3.33;;;;;;;;;;5034060;28;20263;-66
2023/07/09 13:10:30;;;;;;;5.85;3.60;;;;;;;;;;5030000;28;20225;-67
2023/07/09 13:13:03;;;;;;;4.82;3.60;;;;;;;;;;5011016;28;20314;-71
2023/07/09 13:15:40;;;;;;;4.43;3.45;;;;;;;;;;5026209;28;20230;-71
2023/07/09 13:18:09;;;;;;;3.92;3.42;;;;;;;;;;5024893;28;20199;-64
2023/07/09 13:20:40;;;;;;;5.38;3.55;;;;;;;;;;5029405;28;20203;-64
2023/07/09 13:23:11;;;;;;;4.13;3.30;;;;;;;;;;5024874;28;21084;-64
2023/07/09 13:25:40;;;;;;;3.90;3.05;;;;;;;;;;5027853;28;20381;-66
2023/07/09 13:28:21;;;;;;;4.50;3.03;;;;;;;;;;5028181;28;20201;-67
2023/07/09 13:30:50;;;;;;;4.50;3.10;;;;;;;;;;5028870;28;20197;-66
2023/07/09 13:33:18;;;;;;;4.68;3.22;;;;;;;;;;5025028;28;20245;-70
2023/07/09 13:35:47;;;;;;;4.68;3.30;;;;;;;;;;5027382;28;20232;-69
2023/07/09 13:38:18;;;;;;;6.22;4.13;;;;;;;;;;5032238;28;20198;-68
2023/07/09 13:40:47;;;;;;;5.28;3.40;;;;;;;;;;5024769;28;20209;-66
2023/07/09 13:43:15;;;;;;;4.55;3.45;;;;;;;;;;5025529;28;20241;-71
2023/07/09 13:45:43;;;;;;;3.72;3.13;;;;;;;;;;5028953;28;20292;-72
2023/07/09 13:48:15;;;;;;;4.63;3.58;;;;;;;;;;5025654;28;20351;-72
2023/07/09 13:50:44;;;;;;;4.65;3.67;;;;;;;;;;5022770;28;20312;-65
2023/07/09 13:53:16;;;;;;;7.35;3.80;;;;;;;;;;5026141;28;20323;-69
2023/07/09 13:55:43;;;;;;;4.10;3.13;;;;;;;;;;5030202;28;20221;-69
2023/07/09 13:58:14;;;;;;;5.85;3.45;;;;;;;;;;5029517;28;20198;-68
2023/07/09 14:00:43;;;;;;;6.43;3.30;;;;;;;;;;5032509;28;20201;-65
2023/07/09 14:03:31;;;;;;;4.55;3.55;;;;;;;;;;5030511;28;20217;-65
2023/07/09 14:05:59;;;;;;;7.22;3.42;;;;;;;;;;5029170;28;20221;-64
2023/07/09 14:08:27;;;;;;;5.32;3.42;;;;;;;;;;5040826;28;20206;-69
2023/07/09 14:10:55;;;;;;;4.00;3.08;;;;;;;;;;5034136;28;20206;-64
2023/07/09 14:13:25;;;;;;;4.75;3.17;;;;;;;;;;5030358;28;20237;-71
2023/07/09 14:15:55;;;;;;;7.15;3.47;;;;;;;;;;5024163;28;20302;-67
2023/07/09 14:18:24;;;;;;;4.15;3.20;;;;;;;;;;5028552;28;20202;-68
2023/07/09 14:20:51;;;;;;;4.15;3.10;;;;;;;;;;5021321;28;20263;-69
2023/07/09 14:23:20;;;;;;;5.15;3.55;;;;;;;;;;5034271;28;20205;-67
2023/07/09 14:25:47;;;;;;;4.90;3.28;;;;;;;;;;5027501;28;20238;-66
2023/07/09 14:28:19;;;;;;;3.85;2.88;;;;;;;;;;5032515;28;20203;-71
2023/07/09 14:30:50;;;;;;;6.22;3.75;;;;;;;;;;5022985;28;21185;-69
2023/07/09 14:33:19;;;;;;;4.88;3.33;;;;;;;;;;5016829;28;20309;-71
2023/07/09 14:35:47;;;;;;;4.30;3.40;;;;;;;;;;5033043;28;20221;-64
2023/07/09 14:38:14;;;;;;;3.92;3.38;;;;;;;;;;5033198;28;20210;-64
2023/07/09 14:40:42;;;;;;;4.95;3.60;;;;;;;;;;5036656;28;20202;-66
2023/07/09 14:43:10;;;;;;;4.95;3.08;;;;;;;;;;5031994;28;20202;-67
2023/07/09 14:45:41;;;;;;;5.50;3.10;;;;;;;;;;5031140;28;20226;-67
2023/07/09 14:48:12;;;;;;;3.38;2.92;;;;;;;;;;5023331;28;21078;-65
2023/07/09 14:50:41;;;;;;;3.67;2.83;;;;;;;;;;5027567;28;20249;-67
2023/07/09 14:53:13;;;;;;;4.35;2.95;;;;;;;;;;5031054;28;20276;-67
2023/07/09 14:55:41;;;;;;;4.97;3.40;;;;;;;;;;5022922;28;20278;-67
2023/07/09 14:58:14;;;;;;;3.78;3.13;;;;;;;;;;5017231;28;20219;-64